This is the latest recevied weather packets stored in our database for station/object N3FAA. If no packets are shown the sender has not sent any weather packets the latest 1 day(s).
| Time | Temp. | Humidity | Pressure | Rain* | Wind** | Luminosity | Snow |
|---|---|---|---|---|---|---|---|
| 1778011114 | 16.67° C | 50% | 1010.1 hPa | 0 mm | 3.58 m/s, 236° | 262 W/m² | - |
| 1778010811 | 16.11° C | 51% | 1010.4 hPa | 0 mm | 3.13 m/s, 251° | 269 W/m² | - |
| 1778010508 | 16.67° C | 50% | 1010.5 hPa | 0 mm | 2.24 m/s, 240° | 288 W/m² | - |
| 1778010206 | 16.11° C | 51% | 1010.4 hPa | 0 mm | 3.13 m/s, 242° | 313 W/m² | - |
| 1778009901 | 16.11° C | 51% | 1010.4 hPa | 0 mm | 3.13 m/s, 252° | 359 W/m² | - |
| 1778009599 | 16.11° C | 52% | 1010.3 hPa | 0 mm | 4.92 m/s, 239° | 288 W/m² | - |
| 1778009296 | 16.67° C | 50% | 1010.5 hPa | 0 mm | 4.02 m/s, 248° | 233 W/m² | - |
| 1778008995 | 16.11° C | 51% | 1010.3 hPa | 0 mm | 4.47 m/s, 202° | 252 W/m² | - |
| 1778008692 | 16.67° C | 50% | 1010.3 hPa | 0 mm | 2.24 m/s, 228° | 338 W/m² | - |
| 1778008390 | 16.11° C | 50% | 1010.4 hPa | 0 mm | 2.24 m/s, 250° | 505 W/m² | - |
| 1778008087 | 16.67° C | 50% | 1010.3 hPa | 0 mm | 2.24 m/s, 197° | 381 W/m² | - |
| 1778007782 | 16.11° C | 51% | 1010.3 hPa | 0 mm | 4.92 m/s, 253° | 339 W/m² | - |
| 1778007478 | 16.11° C | 52% | 1010.2 hPa | 0 mm | 3.13 m/s, 240° | 257 W/m² | - |
| 1778007175 | 16.11° C | 51% | 1010.4 hPa | 0 mm | 3.13 m/s, 267° | 318 W/m² | - |
| 1778006871 | 15.56° C | 52% | 1010.4 hPa | 0 mm | 1.34 m/s, 269° | 279 W/m² | - |
| 1778006568 | 16.11° C | 52% | 1010.4 hPa | 0 mm | 4.47 m/s, 249° | 295 W/m² | - |
| 1778006265 | 15.56° C | 54% | 1010.5 hPa | 0 mm | 2.24 m/s, 215° | 350 W/m² | - |
| 1778005962 | 15° C | 54% | 1010.6 hPa | 0 mm | 4.92 m/s, 258° | 276 W/m² | - |
| 1778005659 | 15.56° C | 54% | 1010.6 hPa | 0 mm | 3.58 m/s, 250° | 255 W/m² | - |
| 1778005355 | 16.11° C | 51% | 1010.4 hPa | 0 mm | 4.92 m/s, 279° | 270 W/m² | - |
| 1778005052 | 15.56° C | 51% | 1010.3 hPa | 0 mm | 3.13 m/s, 259° | 577 W/m² | - |
| 1778004750 | 16.11° C | 52% | 1010.3 hPa | 0 mm | 4.92 m/s, 230° | 290 W/m² | - |
| 1778004446 | 16.11° C | 52% | 1010.3 hPa | 0 mm | 2.24 m/s, 249° | 306 W/m² | - |
| 1778004143 | 16.67° C | 51% | 1009.9 hPa | 0 mm | 3.58 m/s, 255° | 1056 W/m² | - |
| 1778003839 | 16.67° C | 49% | 1010.3 hPa | 0 mm | 4.47 m/s, 251° | 344 W/m² | - |
* Rain latest hour (hover to see other rain measurements)
** Current wind speed in m/s (hover to see current wind gust speed)